sensor_id;sensor_type;location;lat;lon;timestamp;P1;durP1;ratioP1;P2;durP2;ratioP2
77158;SDS011;66129;45.890;13.714;2024-02-21T00:00:03;9.60;;;3.72;;
77158;SDS011;66129;45.890;13.714;2024-02-21T00:02:30;5.63;;;3.33;;
77158;SDS011;66129;45.890;13.714;2024-02-21T00:04:55;11.38;;;6.03;;
77158;SDS011;66129;45.890;13.714;2024-02-21T00:07:21;13.15;;;6.38;;
77158;SDS011;66129;45.890;13.714;2024-02-21T00:09:46;8.90;;;4.07;;
77158;SDS011;66129;45.890;13.714;2024-02-21T00:12:12;5.82;;;3.67;;
77158;SDS011;66129;45.890;13.714;2024-02-21T00:14:39;7.45;;;4.57;;
77158;SDS011;66129;45.890;13.714;2024-02-21T00:17:05;7.68;;;3.67;;
77158;SDS011;66129;45.890;13.714;2024-02-21T00:19:31;7.53;;;4.25;;
77158;SDS011;66129;45.890;13.714;2024-02-21T00:21:56;7.05;;;4.25;;
77158;SDS011;66129;45.890;13.714;2024-02-21T00:24:22;7.38;;;4.10;;
77158;SDS011;66129;45.890;13.714;2024-02-21T00:26:47;8.27;;;4.20;;
77158;SDS011;66129;45.890;13.714;2024-02-21T00:29:13;7.28;;;4.47;;
77158;SDS011;66129;45.890;13.714;2024-02-21T00:31:38;7.90;;;4.65;;
77158;SDS011;66129;45.890;13.714;2024-02-21T00:34:04;6.50;;;4.10;;
77158;SDS011;66129;45.890;13.714;2024-02-21T00:36:29;8.32;;;3.72;;
77158;SDS011;66129;45.890;13.714;2024-02-21T00:38:55;7.93;;;3.80;;
77158;SDS011;66129;45.890;13.714;2024-02-21T00:41:20;6.32;;;3.72;;
77158;SDS011;66129;45.890;13.714;2024-02-21T00:43:45;7.68;;;4.18;;
77158;SDS011;66129;45.890;13.714;2024-02-21T00:46:13;6.28;;;3.78;;
77158;SDS011;66129;45.890;13.714;2024-02-21T00:48:39;6.40;;;3.92;;
77158;SDS011;66129;45.890;13.714;2024-02-21T00:51:04;7.72;;;4.07;;
77158;SDS011;66129;45.890;13.714;2024-02-21T00:53:30;7.45;;;4.15;;
77158;SDS011;66129;45.890;13.714;2024-02-21T00:55:55;6.00;;;3.40;;
77158;SDS011;66129;45.890;13.714;2024-02-21T00:58:22;8.57;;;3.67;;
77158;SDS011;66129;45.890;13.714;2024-02-21T01:00:47;6.63;;;3.00;;
77158;SDS011;66129;45.890;13.714;2024-02-21T01:03:13;6.40;;;3.72;;
77158;SDS011;66129;45.890;13.714;2024-02-21T01:05:38;9.13;;;3.97;;
77158;SDS011;66129;45.890;13.714;2024-02-21T01:08:04;7.35;;;3.47;;
77158;SDS011;66129;45.890;13.714;2024-02-21T01:10:30;4.38;;;3.03;;
77158;SDS011;66129;45.890;13.714;2024-02-21T01:12:55;4.97;;;3.08;;
77158;SDS011;66129;45.890;13.714;2024-02-21T01:15:21;5.95;;;3.42;;
77158;SDS011;66129;45.890;13.714;2024-02-21T01:17:46;5.43;;;3.00;;
77158;SDS011;66129;45.890;13.714;2024-02-21T01:20:12;6.20;;;3.55;;
77158;SDS011;66129;45.890;13.714;2024-02-21T01:22:37;4.93;;;3.35;;
77158;SDS011;66129;45.890;13.714;2024-02-21T01:25:03;7.32;;;3.65;;
77158;SDS011;66129;45.890;13.714;2024-02-21T01:27:29;4.95;;;2.80;;
77158;SDS011;66129;45.890;13.714;2024-02-21T01:29:55;5.25;;;3.22;;
77158;SDS011;66129;45.890;13.714;2024-02-21T01:32:21;6.47;;;4.18;;
77158;SDS011;66129;45.890;13.714;2024-02-21T01:34:49;6.97;;;3.55;;
77158;SDS011;66129;45.890;13.714;2024-02-21T01:37:14;5.25;;;2.65;;
77158;SDS011;66129;45.890;13.714;2024-02-21T01:39:40;8.13;;;3.10;;
77158;SDS011;66129;45.890;13.714;2024-02-21T01:42:05;3.55;;;2.58;;
77158;SDS011;66129;45.890;13.714;2024-02-21T01:44:31;7.20;;;3.72;;
77158;SDS011;66129;45.890;13.714;2024-02-21T01:46:57;6.03;;;3.03;;
77158;SDS011;66129;45.890;13.714;2024-02-21T01:49:23;5.70;;;2.85;;
77158;SDS011;66129;45.890;13.714;2024-02-21T01:51:48;5.70;;;3.20;;
77158;SDS011;66129;45.890;13.714;2024-02-21T01:54:15;7.55;;;3.00;;
77158;SDS011;66129;45.890;13.714;2024-02-21T01:56:42;4.78;;;2.65;;
77158;SDS011;66129;45.890;13.714;2024-02-21T01:59:09;5.90;;;3.78;;
77158;SDS011;66129;45.890;13.714;2024-02-21T02:01:35;5.18;;;3.15;;
77158;SDS011;66129;45.890;13.714;2024-02-21T02:04:01;5.57;;;3.00;;
77158;SDS011;66129;45.890;13.714;2024-02-21T02:06:27;5.78;;;2.53;;
77158;SDS011;66129;45.890;13.714;2024-02-21T02:08:53;5.57;;;3.20;;
77158;SDS011;66129;45.890;13.714;2024-02-21T02:11:19;5.57;;;2.75;;
77158;SDS011;66129;45.890;13.714;2024-02-21T02:13:45;7.20;;;3.38;;
77158;SDS011;66129;45.890;13.714;2024-02-21T02:16:11;6.40;;;2.90;;
77158;SDS011;66129;45.890;13.714;2024-02-21T02:18:36;4.95;;;2.90;;
77158;SDS011;66129;45.890;13.714;2024-02-21T02:21:03;4.00;;;2.47;;
77158;SDS011;66129;45.890;13.714;2024-02-21T02:23:33;5.03;;;2.80;;
77158;SDS011;66129;45.890;13.714;2024-02-21T02:25:59;4.07;;;2.65;;
77158;SDS011;66129;45.890;13.714;2024-02-21T02:28:26;6.20;;;2.95;;
77158;SDS011;66129;45.890;13.714;2024-02-21T02:30:52;5.75;;;2.45;;
77158;SDS011;66129;45.890;13.714;2024-02-21T02:33:18;6.85;;;3.33;;
77158;SDS011;66129;45.890;13.714;2024-02-21T02:35:43;3.78;;;2.35;;
77158;SDS011;66129;45.890;13.714;2024-02-21T02:38:09;4.85;;;2.90;;
77158;SDS011;66129;45.890;13.714;2024-02-21T02:40:37;7.10;;;3.30;;
77158;SDS011;66129;45.890;13.714;2024-02-21T02:43:03;6.97;;;3.58;;
77158;SDS011;66129;45.890;13.714;2024-02-21T02:45:29;5.35;;;3.42;;
77158;SDS011;66129;45.890;13.714;2024-02-21T02:47:55;6.65;;;4.05;;
77158;SDS011;66129;45.890;13.714;2024-02-21T02:50:22;6.53;;;3.92;;
77158;SDS011;66129;45.890;13.714;2024-02-21T02:52:51;4.47;;;3.00;;
77158;SDS011;66129;45.890;13.714;2024-02-21T02:55:17;5.03;;;2.88;;
77158;SDS011;66129;45.890;13.714;2024-02-21T02:57:43;5.68;;;2.92;;
77158;SDS011;66129;45.890;13.714;2024-02-21T03:00:12;5.45;;;2.85;;
77158;SDS011;66129;45.890;13.714;2024-02-21T03:02:39;3.67;;;2.55;;
77158;SDS011;66129;45.890;13.714;2024-02-21T03:05:16;6.40;;;3.00;;
77158;SDS011;66129;45.890;13.714;2024-02-21T03:07:43;4.32;;;2.90;;
77158;SDS011;66129;45.890;13.714;2024-02-21T03:10:09;8.18;;;3.80;;
77158;SDS011;66129;45.890;13.714;2024-02-21T03:12:35;5.60;;;2.90;;
77158;SDS011;66129;45.890;13.714;2024-02-21T03:15:00;5.70;;;3.20;;
77158;SDS011;66129;45.890;13.714;2024-02-21T03:17:26;5.15;;;2.78;;
77158;SDS011;66129;45.890;13.714;2024-02-21T03:19:53;5.65;;;3.15;;
77158;SDS011;66129;45.890;13.714;2024-02-21T03:22:18;5.43;;;3.53;;
77158;SDS011;66129;45.890;13.714;2024-02-21T03:24:44;5.88;;;3.30;;
77158;SDS011;66129;45.890;13.714;2024-02-21T03:27:10;5.53;;;2.92;;
77158;SDS011;66129;45.890;13.714;2024-02-21T03:29:35;6.30;;;2.90;;
77158;SDS011;66129;45.890;13.714;2024-02-21T03:32:01;6.10;;;3.28;;
77158;SDS011;66129;45.890;13.714;2024-02-21T03:34:26;5.35;;;2.92;;
77158;SDS011;66129;45.890;13.714;2024-02-21T03:36:51;5.78;;;2.80;;
77158;SDS011;66129;45.890;13.714;2024-02-21T03:39:17;4.95;;;2.67;;
77158;SDS011;66129;45.890;13.714;2024-02-21T03:41:42;8.25;;;2.72;;
77158;SDS011;66129;45.890;13.714;2024-02-21T03:44:08;5.53;;;2.92;;
77158;SDS011;66129;45.890;13.714;2024-02-21T03:46:34;3.35;;;2.28;;
77158;SDS011;66129;45.890;13.714;2024-02-21T03:48:59;4.85;;;2.58;;
77158;SDS011;66129;45.890;13.714;2024-02-21T03:51:25;4.47;;;2.60;;
77158;SDS011;66129;45.890;13.714;2024-02-21T03:53:51;5.47;;;2.53;;
77158;SDS011;66129;45.890;13.714;2024-02-21T03:56:17;5.57;;;2.58;;
77158;SDS011;66129;45.890;13.714;2024-02-21T03:58:42;4.90;;;2.25;;
77158;SDS011;66129;45.890;13.714;2024-02-21T04:01:08;6.18;;;2.63;;
77158;SDS011;66129;45.890;13.714;2024-02-21T04:03:33;3.92;;;2.13;;
77158;SDS011;66129;45.890;13.714;2024-02-21T04:05:59;5.70;;;2.88;;
77158;SDS011;66129;45.890;13.714;2024-02-21T04:08:25;3.65;;;2.28;;
77158;SDS011;66129;45.890;13.714;2024-02-21T04:10:51;3.88;;;2.42;;
77158;SDS011;66129;45.890;13.714;2024-02-21T04:13:16;5.47;;;2.38;;
77158;SDS011;66129;45.890;13.714;2024-02-21T04:15:42;4.55;;;2.70;;
77158;SDS011;66129;45.890;13.714;2024-02-21T04:18:07;8.15;;;2.97;;
77158;SDS011;66129;45.890;13.714;2024-02-21T04:20:33;4.57;;;2.58;;
77158;SDS011;66129;45.890;13.714;2024-02-21T04:22:59;4.50;;;2.75;;
77158;SDS011;66129;45.890;13.714;2024-02-21T04:25:25;2.97;;;2.00;;
77158;SDS011;66129;45.890;13.714;2024-02-21T04:27:51;3.40;;;2.28;;
77158;SDS011;66129;45.890;13.714;2024-02-21T04:30:17;6.20;;;3.10;;
77158;SDS011;66129;45.890;13.714;2024-02-21T04:32:43;3.42;;;2.15;;
77158;SDS011;66129;45.890;13.714;2024-02-21T04:35:08;3.80;;;2.10;;
77158;SDS011;66129;45.890;13.714;2024-02-21T04:37:34;4.15;;;1.83;;
77158;SDS011;66129;45.890;13.714;2024-02-21T04:39:59;3.67;;;2.00;;
77158;SDS011;66129;45.890;13.714;2024-02-21T04:42:25;4.70;;;2.42;;
77158;SDS011;66129;45.890;13.714;2024-02-21T04:44:50;4.70;;;2.42;;
77158;SDS011;66129;45.890;13.714;2024-02-21T04:47:16;3.95;;;1.88;;
77158;SDS011;66129;45.890;13.714;2024-02-21T04:49:41;3.17;;;1.83;;
77158;SDS011;66129;45.890;13.714;2024-02-21T04:52:07;5.97;;;2.50;;
77158;SDS011;66129;45.890;13.714;2024-02-21T04:54:33;5.10;;;2.58;;
77158;SDS011;66129;45.890;13.714;2024-02-21T04:57:00;3.72;;;2.17;;
77158;SDS011;66129;45.890;13.714;2024-02-21T04:59:25;4.70;;;2.70;;
77158;SDS011;66129;45.890;13.714;2024-02-21T05:01:51;5.78;;;3.80;;
77158;SDS011;66129;45.890;13.714;2024-02-21T05:04:17;4.28;;;2.50;;
77158;SDS011;66129;45.890;13.714;2024-02-21T05:06:42;4.40;;;2.42;;
77158;SDS011;66129;45.890;13.714;2024-02-21T05:09:08;3.30;;;2.17;;
77158;SDS011;66129;45.890;13.714;2024-02-21T05:11:38;4.53;;;2.47;;
77158;SDS011;66129;45.890;13.714;2024-02-21T05:14:03;4.93;;;2.38;;
77158;SDS011;66129;45.890;13.714;2024-02-21T05:16:29;3.03;;;2.10;;
77158;SDS011;66129;45.890;13.714;2024-02-21T05:18:55;3.97;;;2.13;;
77158;SDS011;66129;45.890;13.714;2024-02-21T05:21:25;3.35;;;2.20;;
77158;SDS011;66129;45.890;13.714;2024-02-21T05:23:51;6.95;;;3.75;;
77158;SDS011;66129;45.890;13.714;2024-02-21T05:26:20;14.02;;;5.28;;
77158;SDS011;66129;45.890;13.714;2024-02-21T05:28:49;39.47;;;15.43;;
77158;SDS011;66129;45.890;13.714;2024-02-21T05:31:15;23.52;;;10.68;;
77158;SDS011;66129;45.890;13.714;2024-02-21T05:33:45;23.25;;;11.23;;
77158;SDS011;66129;45.890;13.714;2024-02-21T05:36:11;31.77;;;12.05;;
77158;SDS011;66129;45.890;13.714;2024-02-21T05:38:37;21.40;;;9.50;;
77158;SDS011;66129;45.890;13.714;2024-02-21T05:41:03;19.83;;;8.15;;
77158;SDS011;66129;45.890;13.714;2024-02-21T05:43:29;8.40;;;4.28;;
77158;SDS011;66129;45.890;13.714;2024-02-21T05:45:54;12.50;;;6.57;;
77158;SDS011;66129;45.890;13.714;2024-02-21T05:48:20;15.48;;;6.10;;
77158;SDS011;66129;45.890;13.714;2024-02-21T05:50:47;7.80;;;4.47;;
77158;SDS011;66129;45.890;13.714;2024-02-21T05:53:12;9.23;;;3.67;;
77158;SDS011;66129;45.890;13.714;2024-02-21T05:55:38;9.70;;;4.00;;
77158;SDS011;66129;45.890;13.714;2024-02-21T05:58:04;10.57;;;3.75;;
77158;SDS011;66129;45.890;13.714;2024-02-21T06:00:31;6.57;;;3.28;;
77158;SDS011;66129;45.890;13.714;2024-02-21T06:02:57;7.75;;;2.65;;
77158;SDS011;66129;45.890;13.714;2024-02-21T06:05:22;4.63;;;2.75;;
77158;SDS011;66129;45.890;13.714;2024-02-21T06:07:48;4.18;;;2.38;;
77158;SDS011;66129;45.890;13.714;2024-02-21T06:10:13;5.50;;;2.60;;
77158;SDS011;66129;45.890;13.714;2024-02-21T06:12:39;4.22;;;2.55;;
77158;SDS011;66129;45.890;13.714;2024-02-21T06:15:05;12.38;;;5.90;;
77158;SDS011;66129;45.890;13.714;2024-02-21T06:17:31;55.55;;;20.52;;
77158;SDS011;66129;45.890;13.714;2024-02-21T06:19:56;212.65;;;68.75;;
77158;SDS011;66129;45.890;13.714;2024-02-21T06:22:22;183.15;;;68.57;;
77158;SDS011;66129;45.890;13.714;2024-02-21T06:24:47;41.38;;;19.20;;
77158;SDS011;66129;45.890;13.714;2024-02-21T06:27:13;7.07;;;3.88;;
77158;SDS011;66129;45.890;13.714;2024-02-21T06:29:41;11.82;;;5.82;;
77158;SDS011;66129;45.890;13.714;2024-02-21T06:32:06;37.05;;;15.90;;
77158;SDS011;66129;45.890;13.714;2024-02-21T06:34:32;10.57;;;5.90;;
77158;SDS011;66129;45.890;13.714;2024-02-21T06:36:58;11.77;;;5.72;;
77158;SDS011;66129;45.890;13.714;2024-02-21T06:39:23;12.77;;;6.95;;
77158;SDS011;66129;45.890;13.714;2024-02-21T06:41:49;15.23;;;7.07;;
77158;SDS011;66129;45.890;13.714;2024-02-21T06:44:18;13.27;;;6.05;;
77158;SDS011;66129;45.890;13.714;2024-02-21T06:46:44;11.48;;;5.70;;
77158;SDS011;66129;45.890;13.714;2024-02-21T06:49:10;16.67;;;6.13;;
77158;SDS011;66129;45.890;13.714;2024-02-21T06:51:41;8.77;;;4.90;;
77158;SDS011;66129;45.890;13.714;2024-02-21T06:54:07;11.63;;;4.22;;
77158;SDS011;66129;45.890;13.714;2024-02-21T06:56:33;6.70;;;3.53;;
77158;SDS011;66129;45.890;13.714;2024-02-21T06:58:58;11.98;;;4.88;;
77158;SDS011;66129;45.890;13.714;2024-02-21T07:01:24;10.63;;;5.55;;
77158;SDS011;66129;45.890;13.714;2024-02-21T07:03:50;15.95;;;6.28;;
77158;SDS011;66129;45.890;13.714;2024-02-21T07:06:15;9.98;;;5.68;;
77158;SDS011;66129;45.890;13.714;2024-02-21T07:08:41;18.73;;;6.65;;
77158;SDS011;66129;45.890;13.714;2024-02-21T07:11:06;19.30;;;8.85;;
77158;SDS011;66129;45.890;13.714;2024-02-21T07:13:32;33.58;;;18.08;;
77158;SDS011;66129;45.890;13.714;2024-02-21T07:15:58;24.50;;;12.43;;
77158;SDS011;66129;45.890;13.714;2024-02-21T07:18:23;22.67;;;13.38;;
77158;SDS011;66129;45.890;13.714;2024-02-21T07:20:52;26.08;;;13.93;;
77158;SDS011;66129;45.890;13.714;2024-02-21T07:23:18;36.28;;;17.20;;
77158;SDS011;66129;45.890;13.714;2024-02-21T07:25:44;37.83;;;20.13;;
77158;SDS011;66129;45.890;13.714;2024-02-21T07:28:09;32.67;;;17.85;;
77158;SDS011;66129;45.890;13.714;2024-02-21T07:30:35;37.80;;;17.60;;
77158;SDS011;66129;45.890;13.714;2024-02-21T07:33:00;63.92;;;33.97;;
77158;SDS011;66129;45.890;13.714;2024-02-21T07:35:26;27.98;;;17.02;;
77158;SDS011;66129;45.890;13.714;2024-02-21T07:37:52;18.80;;;10.75;;
77158;SDS011;66129;45.890;13.714;2024-02-21T07:40:17;14.88;;;8.52;;
77158;SDS011;66129;45.890;13.714;2024-02-21T07:42:43;13.63;;;8.13;;
77158;SDS011;66129;45.890;13.714;2024-02-21T07:45:08;11.50;;;6.40;;
77158;SDS011;66129;45.890;13.714;2024-02-21T07:47:35;9.00;;;5.28;;
77158;SDS011;66129;45.890;13.714;2024-02-21T07:50:01;11.07;;;5.63;;
77158;SDS011;66129;45.890;13.714;2024-02-21T07:52:27;15.00;;;8.43;;
77158;SDS011;66129;45.890;13.714;2024-02-21T07:54:53;34.95;;;19.13;;
77158;SDS011;66129;45.890;13.714;2024-02-21T07:57:18;31.55;;;16.35;;
77158;SDS011;66129;45.890;13.714;2024-02-21T07:59:44;49.97;;;23.33;;
77158;SDS011;66129;45.890;13.714;2024-02-21T08:02:09;23.00;;;12.27;;
77158;SDS011;66129;45.890;13.714;2024-02-21T08:04:35;17.73;;;10.27;;
77158;SDS011;66129;45.890;13.714;2024-02-21T08:07:00;12.57;;;7.05;;
77158;SDS011;66129;45.890;13.714;2024-02-21T08:09:28;20.63;;;10.20;;
77158;SDS011;66129;45.890;13.714;2024-02-21T08:11:54;19.88;;;9.40;;
77158;SDS011;66129;45.890;13.714;2024-02-21T08:14:20;23.55;;;14.27;;
77158;SDS011;66129;45.890;13.714;2024-02-21T08:16:46;43.72;;;21.70;;
77158;SDS011;66129;45.890;13.714;2024-02-21T08:19:11;27.80;;;11.15;;
77158;SDS011;66129;45.890;13.714;2024-02-21T08:21:37;19.85;;;9.52;;
77158;SDS011;66129;45.890;13.714;2024-02-21T08:24:02;9.65;;;5.32;;
77158;SDS011;66129;45.890;13.714;2024-02-21T08:26:28;10.65;;;5.18;;
77158;SDS011;66129;45.890;13.714;2024-02-21T08:28:56;6.10;;;4.07;;
77158;SDS011;66129;45.890;13.714;2024-02-21T08:31:24;8.35;;;4.38;;
77158;SDS011;66129;45.890;13.714;2024-02-21T08:33:56;7.97;;;5.22;;
77158;SDS011;66129;45.890;13.714;2024-02-21T08:36:27;14.50;;;5.57;;
77158;SDS011;66129;45.890;13.714;2024-02-21T08:38:53;7.82;;;4.53;;
77158;SDS011;66129;45.890;13.714;2024-02-21T08:41:19;7.70;;;4.22;;
77158;SDS011;66129;45.890;13.714;2024-02-21T08:43:46;7.97;;;4.35;;
77158;SDS011;66129;45.890;13.714;2024-02-21T08:46:12;6.00;;;3.75;;
77158;SDS011;66129;45.890;13.714;2024-02-21T08:48:37;7.28;;;4.47;;
77158;SDS011;66129;45.890;13.714;2024-02-21T08:51:03;10.77;;;5.90;;
77158;SDS011;66129;45.890;13.714;2024-02-21T08:53:30;17.27;;;6.85;;
77158;SDS011;66129;45.890;13.714;2024-02-21T08:55:55;17.20;;;7.30;;
77158;SDS011;66129;45.890;13.714;2024-02-21T08:58:21;19.15;;;7.68;;
77158;SDS011;66129;45.890;13.714;2024-02-21T09:00:48;10.48;;;5.80;;
77158;SDS011;66129;45.890;13.714;2024-02-21T09:03:14;22.88;;;10.70;;
77158;SDS011;66129;45.890;13.714;2024-02-21T09:05:40;15.65;;;8.75;;
77158;SDS011;66129;45.890;13.714;2024-02-21T09:08:06;15.95;;;10.38;;
77158;SDS011;66129;45.890;13.714;2024-02-21T09:10:31;16.25;;;10.43;;
77158;SDS011;66129;45.890;13.714;2024-02-21T09:12:57;22.27;;;10.20;;
77158;SDS011;66129;45.890;13.714;2024-02-21T09:15:22;10.45;;;5.38;;
77158;SDS011;66129;45.890;13.714;2024-02-21T09:17:49;21.13;;;11.05;;
77158;SDS011;66129;45.890;13.714;2024-02-21T09:20:14;9.13;;;5.10;;
77158;SDS011;66129;45.890;13.714;2024-02-21T09:22:41;8.00;;;4.30;;
77158;SDS011;66129;45.890;13.714;2024-02-21T09:25:07;20.08;;;9.68;;
77158;SDS011;66129;45.890;13.714;2024-02-21T09:27:33;9.18;;;4.97;;
77158;SDS011;66129;45.890;13.714;2024-02-21T09:29:58;13.52;;;6.07;;
77158;SDS011;66129;45.890;13.714;2024-02-21T09:32:24;8.23;;;3.95;;
77158;SDS011;66129;45.890;13.714;2024-02-21T09:34:50;10.82;;;5.60;;
77158;SDS011;66129;45.890;13.714;2024-02-21T09:37:16;11.50;;;6.32;;
77158;SDS011;66129;45.890;13.714;2024-02-21T09:39:41;13.18;;;5.75;;
77158;SDS011;66129;45.890;13.714;2024-02-21T09:42:07;12.73;;;5.15;;
77158;SDS011;66129;45.890;13.714;2024-02-21T09:44:36;14.80;;;7.35;;
77158;SDS011;66129;45.890;13.714;2024-02-21T09:47:19;6.50;;;3.83;;
77158;SDS011;66129;45.890;13.714;2024-02-21T09:49:49;5.95;;;3.20;;
77158;SDS011;66129;45.890;13.714;2024-02-21T09:52:16;6.22;;;3.45;;
77158;SDS011;66129;45.890;13.714;2024-02-21T09:54:44;5.38;;;3.50;;
77158;SDS011;66129;45.890;13.714;2024-02-21T09:57:10;5.38;;;3.40;;
77158;SDS011;66129;45.890;13.714;2024-02-21T09:59:36;8.38;;;3.85;;
77158;SDS011;66129;45.890;13.714;2024-02-21T10:02:02;5.40;;;3.95;;
77158;SDS011;66129;45.890;13.714;2024-02-21T10:04:28;6.32;;;3.90;;
77158;SDS011;66129;45.890;13.714;2024-02-21T10:06:54;7.18;;;4.47;;
77158;SDS011;66129;45.890;13.714;2024-02-21T10:09:21;5.25;;;3.13;;
77158;SDS011;66129;45.890;13.714;2024-02-21T10:11:48;4.22;;;2.92;;
77158;SDS011;66129;45.890;13.714;2024-02-21T10:14:15;5.72;;;3.35;;
77158;SDS011;66129;45.890;13.714;2024-02-21T10:16:40;7.22;;;3.13;;
77158;SDS011;66129;45.890;13.714;2024-02-21T10:19:06;4.50;;;3.20;;
77158;SDS011;66129;45.890;13.714;2024-02-21T10:21:31;5.40;;;3.40;;
77158;SDS011;66129;45.890;13.714;2024-02-21T10:23:57;6.07;;;2.97;;
77158;SDS011;66129;45.890;13.714;2024-02-21T10:26:23;5.20;;;3.40;;
77158;SDS011;66129;45.890;13.714;2024-02-21T10:28:48;5.65;;;3.05;;
77158;SDS011;66129;45.890;13.714;2024-02-21T10:33:56;6.97;;;3.10;;
77158;SDS011;66129;45.890;13.714;2024-02-21T10:36:24;5.65;;;3.22;;
77158;SDS011;66129;45.890;13.714;2024-02-21T10:38:50;5.55;;;3.17;;
77158;SDS011;66129;45.890;13.714;2024-02-21T10:41:16;3.33;;;2.40;;
77158;SDS011;66129;45.890;13.714;2024-02-21T10:43:46;3.17;;;2.00;;
77158;SDS011;66129;45.890;13.714;2024-02-21T10:46:19;4.35;;;2.65;;
77158;SDS011;66129;45.890;13.714;2024-02-21T10:48:45;4.65;;;2.50;;
77158;SDS011;66129;45.890;13.714;2024-02-21T10:51:18;4.05;;;2.50;;
77158;SDS011;66129;45.890;13.714;2024-02-21T10:56:21;5.95;;;3.33;;
77158;SDS011;66129;45.890;13.714;2024-02-21T10:59:00;4.53;;;3.10;;
77158;SDS011;66129;45.890;13.714;2024-02-21T11:01:28;3.95;;;3.00;;
77158;SDS011;66129;45.890;13.714;2024-02-21T11:03:56;4.70;;;2.60;;
77158;SDS011;66129;45.890;13.714;2024-02-21T11:06:24;4.20;;;2.45;;
77158;SDS011;66129;45.890;13.714;2024-02-21T11:09:04;3.90;;;2.33;;
77158;SDS011;66129;45.890;13.714;2024-02-21T11:11:35;3.58;;;2.00;;
77158;SDS011;66129;45.890;13.714;2024-02-21T11:16:43;3.92;;;2.13;;
77158;SDS011;66129;45.890;13.714;2024-02-21T11:19:09;3.33;;;2.25;;
77158;SDS011;66129;45.890;13.714;2024-02-21T11:21:43;4.32;;;2.50;;
77158;SDS011;66129;45.890;13.714;2024-02-21T11:24:09;3.83;;;2.15;;
77158;SDS011;66129;45.890;13.714;2024-02-21T11:26:36;3.28;;;1.92;;
77158;SDS011;66129;45.890;13.714;2024-02-21T11:29:02;3.25;;;2.10;;
77158;SDS011;66129;45.890;13.714;2024-02-21T11:31:39;3.00;;;2.03;;
77158;SDS011;66129;45.890;13.714;2024-02-21T11:36:33;9.02;;;4.10;;
77158;SDS011;66129;45.890;13.714;2024-02-21T11:39:05;6.82;;;2.92;;
77158;SDS011;66129;45.890;13.714;2024-02-21T11:41:31;3.90;;;2.00;;
77158;SDS011;66129;45.890;13.714;2024-02-21T11:43:57;3.85;;;2.22;;
77158;SDS011;66129;45.890;13.714;2024-02-21T11:46:22;3.28;;;2.08;;
77158;SDS011;66129;45.890;13.714;2024-02-21T11:48:48;7.13;;;3.65;;
77158;SDS011;66129;45.890;13.714;2024-02-21T11:51:22;4.35;;;2.13;;
77158;SDS011;66129;45.890;13.714;2024-02-21T11:53:51;6.22;;;3.00;;
77158;SDS011;66129;45.890;13.714;2024-02-21T11:56:19;4.35;;;2.17;;
77158;SDS011;66129;45.890;13.714;2024-02-21T11:58:48;4.60;;;2.03;;
77158;SDS011;66129;45.890;13.714;2024-02-21T12:01:14;4.40;;;2.65;;
77158;SDS011;66129;45.890;13.714;2024-02-21T12:03:40;2.22;;;1.52;;
77158;SDS011;66129;45.890;13.714;2024-02-21T12:06:14;2.85;;;1.48;;
77158;SDS011;66129;45.890;13.714;2024-02-21T12:08:44;2.47;;;1.23;;
77158;SDS011;66129;45.890;13.714;2024-02-21T12:11:20;3.63;;;1.70;;
77158;SDS011;66129;45.890;13.714;2024-02-21T12:14:03;2.53;;;1.20;;
77158;SDS011;66129;45.890;13.714;2024-02-21T12:16:33;1.88;;;1.40;;
77158;SDS011;66129;45.890;13.714;2024-02-21T12:18:59;3.42;;;1.60;;
77158;SDS011;66129;45.890;13.714;2024-02-21T12:21:26;2.78;;;1.50;;
77158;SDS011;66129;45.890;13.714;2024-02-21T12:23:56;2.53;;;1.42;;
77158;SDS011;66129;45.890;13.714;2024-02-21T12:26:22;2.60;;;1.60;;
77158;SDS011;66129;45.890;13.714;2024-02-21T12:28:48;2.63;;;1.85;;
77158;SDS011;66129;45.890;13.714;2024-02-21T12:31:13;4.55;;;1.67;;
77158;SDS011;66129;45.890;13.714;2024-02-21T12:33:39;2.53;;;1.58;;
77158;SDS011;66129;45.890;13.714;2024-02-21T12:36:05;3.75;;;1.83;;
77158;SDS011;66129;45.890;13.714;2024-02-21T12:38:30;3.90;;;1.60;;
77158;SDS011;66129;45.890;13.714;2024-02-21T12:40:56;2.60;;;1.85;;
77158;SDS011;66129;45.890;13.714;2024-02-21T12:43:25;2.90;;;1.45;;
77158;SDS011;66129;45.890;13.714;2024-02-21T12:45:51;2.83;;;1.90;;
77158;SDS011;66129;45.890;13.714;2024-02-21T12:48:17;2.33;;;1.60;;
77158;SDS011;66129;45.890;13.714;2024-02-21T12:50:50;2.78;;;1.60;;
77158;SDS011;66129;45.890;13.714;2024-02-21T12:53:19;2.83;;;1.80;;
77158;SDS011;66129;45.890;13.714;2024-02-21T12:55:48;3.13;;;2.00;;
77158;SDS011;66129;45.890;13.714;2024-02-21T12:58:13;3.53;;;1.10;;
77158;SDS011;66129;45.890;13.714;2024-02-21T13:00:39;3.05;;;1.80;;
77158;SDS011;66129;45.890;13.714;2024-02-21T13:03:05;3.03;;;1.83;;
77158;SDS011;66129;45.890;13.714;2024-02-21T13:05:30;2.38;;;1.63;;
77158;SDS011;66129;45.890;13.714;2024-02-21T13:07:59;4.45;;;2.08;;
77158;SDS011;66129;45.890;13.714;2024-02-21T13:10:25;2.80;;;1.90;;
77158;SDS011;66129;45.890;13.714;2024-02-21T13:12:50;3.47;;;2.00;;
77158;SDS011;66129;45.890;13.714;2024-02-21T13:15:16;2.90;;;1.73;;
77158;SDS011;66129;45.890;13.714;2024-02-21T13:17:45;3.20;;;1.90;;
77158;SDS011;66129;45.890;13.714;2024-02-21T13:20:11;2.45;;;1.75;;
77158;SDS011;66129;45.890;13.714;2024-02-21T13:22:37;3.30;;;1.40;;
77158;SDS011;66129;45.890;13.714;2024-02-21T13:25:03;3.28;;;1.83;;
77158;SDS011;66129;45.890;13.714;2024-02-21T13:27:29;2.55;;;1.60;;
77158;SDS011;66129;45.890;13.714;2024-02-21T13:29:55;3.65;;;1.80;;
77158;SDS011;66129;45.890;13.714;2024-02-21T13:32:20;5.35;;;1.95;;
77158;SDS011;66129;45.890;13.714;2024-02-21T13:34:46;2.90;;;2.00;;
77158;SDS011;66129;45.890;13.714;2024-02-21T13:37:11;2.88;;;2.00;;
77158;SDS011;66129;45.890;13.714;2024-02-21T13:39:38;3.88;;;2.22;;
77158;SDS011;66129;45.890;13.714;2024-02-21T13:42:04;4.93;;;2.42;;
77158;SDS011;66129;45.890;13.714;2024-02-21T13:44:31;3.13;;;1.80;;
77158;SDS011;66129;45.890;13.714;2024-02-21T13:46:59;3.75;;;2.05;;
77158;SDS011;66129;45.890;13.714;2024-02-21T13:49:25;4.00;;;2.20;;
77158;SDS011;66129;45.890;13.714;2024-02-21T13:51:51;4.35;;;2.80;;
77158;SDS011;66129;45.890;13.714;2024-02-21T13:54:16;3.85;;;2.20;;
77158;SDS011;66129;45.890;13.714;2024-02-21T13:56:44;2.97;;;1.95;;
77158;SDS011;66129;45.890;13.714;2024-02-21T13:59:11;4.22;;;1.63;;
77158;SDS011;66129;45.890;13.714;2024-02-21T14:01:40;3.63;;;1.70;;
77158;SDS011;66129;45.890;13.714;2024-02-21T14:04:06;3.60;;;2.15;;
77158;SDS011;66129;45.890;13.714;2024-02-21T14:06:32;3.90;;;2.10;;
77158;SDS011;66129;45.890;13.714;2024-02-21T14:08:57;2.85;;;2.10;;
77158;SDS011;66129;45.890;13.714;2024-02-21T14:11:23;2.72;;;1.63;;
77158;SDS011;66129;45.890;13.714;2024-02-21T14:13:48;4.78;;;2.17;;
77158;SDS011;66129;45.890;13.714;2024-02-21T14:16:14;5.43;;;2.75;;
77158;SDS011;66129;45.890;13.714;2024-02-21T14:18:40;5.35;;;1.92;;
77158;SDS011;66129;45.890;13.714;2024-02-21T14:21:08;3.45;;;1.65;;
77158;SDS011;66129;45.890;13.714;2024-02-21T14:23:37;3.58;;;2.00;;
77158;SDS011;66129;45.890;13.714;2024-02-21T14:26:04;3.28;;;2.20;;
77158;SDS011;66129;45.890;13.714;2024-02-21T14:28:30;3.88;;;2.13;;
77158;SDS011;66129;45.890;13.714;2024-02-21T14:30:55;3.55;;;2.03;;
77158;SDS011;66129;45.890;13.714;2024-02-21T14:33:28;2.72;;;1.73;;
77158;SDS011;66129;45.890;13.714;2024-02-21T14:35:55;3.15;;;1.88;;